Time;durP1;ratioP1;P1;durP2;ratioP2;P2;SDS_P1;SDS_P2;PMS_P1;PMS_P2;Temp;Humidity;BMP_temperature;BMP_pressure;BME280_temperature;BME280_humidity;BME280_pressure;Samples;Min_cycle;Max_cycle;Signal;HPM_P1;HPM_P2
2021/03/22 00:00:46;;;;;;;14.10;6.97;;;5.20;48.00;;;;;;5110911;27;35952;-83
2021/03/22 00:03:15;;;;;;;16.27;8.00;;;5.20;47.80;;;;;;5114161;27;40636;-83
2021/03/22 00:05:46;;;;;;;14.50;6.93;;;5.20;47.60;;;;;;5111247;28;39009;-84
2021/03/22 00:08:13;;;;;;;13.50;7.37;;;5.20;47.60;;;;;;5114781;28;39086;-82
2021/03/22 00:10:43;;;;;;;18.33;7.90;;;5.20;47.90;;;;;;5104235;27;35686;-82
2021/03/22 00:13:11;;;;;;;15.20;7.30;;;5.10;47.90;;;;;;5115771;27;39465;-82
2021/03/22 00:15:42;;;;;;;17.90;7.33;;;5.10;48.00;;;;;;5114972;27;38895;-83
2021/03/22 00:18:13;;;;;;;21.73;7.40;;;5.10;48.10;;;;;;5115321;27;36713;-82
2021/03/22 00:20:40;;;;;;;21.70;7.27;;;5.00;48.10;;;;;;5113906;27;37156;-83
2021/03/22 00:23:08;;;;;;;18.83;7.80;;;5.10;48.20;;;;;;5109078;27;38462;-83
2021/03/22 00:25:35;;;;;;;17.33;8.03;;;5.10;48.10;;;;;;5130294;27;39876;-82
2021/03/22 00:28:04;;;;;;;14.47;7.77;;;5.10;48.30;;;;;;5116262;27;38207;-83
2021/03/22 00:30:37;;;;;;;20.13;7.97;;;5.00;48.40;;;;;;5128336;27;37649;-83
2021/03/22 00:33:06;;;;;;;22.60;8.07;;;5.00;48.40;;;;;;5094755;28;38375;-83
2021/03/22 00:35:33;;;;;;;21.60;7.57;;;5.00;48.40;;;;;;5116053;27;39031;-83
2021/03/22 00:38:01;;;;;;;12.33;7.80;;;5.00;48.30;;;;;;5108180;28;36812;-83
2021/03/22 00:40:32;;;;;;;23.30;8.23;;;5.00;48.40;;;;;;5097275;27;35945;-83
2021/03/22 00:42:59;;;;;;;17.30;7.67;;;5.00;48.50;;;;;;5122943;27;39500;-83
2021/03/22 00:45:27;;;;;;;23.20;7.70;;;5.00;48.60;;;;;;5101424;27;38012;-83
2021/03/22 00:47:55;;;;;;;14.60;8.00;;;4.90;48.60;;;;;;5133253;27;38846;-83
2021/03/22 00:50:24;;;;;;;16.33;7.17;;;4.90;48.50;;;;;;5142337;27;37063;-83
2021/03/22 00:52:52;;;;;;;16.37;7.57;;;4.90;48.70;;;;;;5120825;27;38407;-84
2021/03/22 00:55:20;;;;;;;16.47;7.80;;;4.80;48.70;;;;;;5150584;27;37552;-84
2021/03/22 00:57:48;;;;;;;16.17;7.60;;;4.80;48.90;;;;;;5113053;27;38473;-82
2021/03/22 01:00:21;;;;;;;22.80;8.17;;;4.80;48.90;;;;;;5134521;27;37209;-83
2021/03/22 01:02:48;;;;;;;16.13;7.03;;;4.80;48.90;;;;;;5127211;27;39410;-82
2021/03/22 01:05:16;;;;;;;22.63;8.07;;;4.70;48.90;;;;;;5134769;27;37726;-82
2021/03/22 01:07:44;;;;;;;15.53;6.83;;;4.70;49.10;;;;;;5114577;27;36963;-83
2021/03/22 01:10:28;;;;;;;16.03;6.63;;;4.70;49.10;;;;;;5137234;27;37354;-83
2021/03/22 01:12:58;;;;;;;18.70;7.70;;;4.70;49.20;;;;;;5118319;27;39643;-84
2021/03/22 01:15:25;;;;;;;18.37;7.40;;;4.60;49.00;;;;;;5119293;28;39338;-83
2021/03/22 01:17:53;;;;;;;19.57;7.20;;;4.60;49.10;;;;;;5121205;27;36689;-82
2021/03/22 01:20:31;;;;;;;11.83;6.67;;;4.60;49.10;;;;;;5133980;27;36950;-83
2021/03/22 01:23:06;;;;;;;23.47;7.43;;;4.50;49.40;;;;;;5100068;28;39819;-82
2021/03/22 01:25:33;;;;;;;16.03;7.33;;;4.40;49.70;;;;;;5109904;27;38383;-83
2021/03/22 01:28:02;;;;;;;18.47;7.20;;;4.30;49.40;;;;;;5133797;27;38201;-82
2021/03/22 01:30:39;;;;;;;13.70;7.77;;;4.30;49.50;;;;;;5135339;27;37255;-82
2021/03/22 01:33:10;;;;;;;14.70;6.73;;;4.10;49.60;;;;;;5116288;27;40517;-82
2021/03/22 01:35:40;;;;;;;17.47;6.80;;;4.10;49.90;;;;;;5117546;27;39296;-82
2021/03/22 01:38:10;;;;;;;20.73;7.60;;;4.10;50.20;;;;;;5132496;27;38513;-82
2021/03/22 01:41:13;;;;;;;20.50;6.83;;;4.10;50.30;;;;;;5113757;28;36116;-83
2021/03/22 01:44:14;;;;;;;13.10;7.23;;;4.00;50.30;;;;;;5129893;27;40046;-83
2021/03/22 01:46:46;;;;;;;17.23;7.07;;;4.10;50.50;;;;;;5130372;27;39180;-82
2021/03/22 01:49:18;;;;;;;17.33;7.83;;;4.00;50.10;;;;;;5135038;27;39017;-83
2021/03/22 01:51:48;;;;;;;16.17;7.60;;;3.90;50.20;;;;;;5131223;27;37172;-82
2021/03/22 01:54:19;;;;;;;20.50;7.60;;;3.80;50.20;;;;;;5121792;27;39536;-82
2021/03/22 01:56:49;;;;;;;22.93;7.50;;;3.80;50.50;;;;;;5121914;27;38889;-82
2021/03/22 01:59:21;;;;;;;21.97;7.90;;;3.70;50.80;;;;;;5117801;27;37527;-82
2021/03/22 02:01:54;;;;;;;16.30;6.93;;;3.70;51.20;;;;;;5106452;28;35835;-82
2021/03/22 02:04:25;;;;;;;16.57;7.60;;;3.80;51.50;;;;;;5113514;28;40246;-82
2021/03/22 02:06:53;;;;;;;15.10;7.60;;;3.80;51.60;;;;;;5124897;27;39243;-82
2021/03/22 02:09:23;;;;;;;23.63;7.10;;;3.80;51.60;;;;;;5136512;27;38266;-83
2021/03/22 02:11:50;;;;;;;30.10;8.47;;;3.90;51.50;;;;;;5120479;27;36942;-82
2021/03/22 02:14:18;;;;;;;18.87;7.47;;;4.00;51.40;;;;;;5115517;28;39905;-82
2021/03/22 02:16:57;;;;;;;17.87;6.93;;;4.00;51.30;;;;;;5102719;27;40597;-82
2021/03/22 02:19:52;;;;;;;12.20;6.40;;;4.10;51.20;;;;;;5140135;27;36756;-83
2021/03/22 02:23:00;;;;;;;14.67;7.70;;;4.20;50.90;;;;;;5123470;27;38076;-83
2021/03/22 02:25:33;;;;;;;17.43;6.77;;;4.20;50.70;;;;;;5132487;27;40638;-82
2021/03/22 02:28:26;;;;;;;18.10;6.97;;;4.20;50.70;;;;;;5113753;27;39033;-82
2021/03/22 02:31:21;;;;;;;17.30;5.77;;;4.20;50.40;;;;;;5131055;27;37966;-82
2021/03/22 02:34:25;;;;;;;19.53;6.47;;;4.20;50.20;;;;;;5132309;27;38239;-82
2021/03/22 02:37:15;;;;;;;21.70;5.90;;;4.30;50.00;;;;;;5099318;27;40635;-82
2021/03/22 02:39:50;;;;;;;20.20;6.30;;;4.30;50.00;;;;;;5124114;27;38930;-82
2021/03/22 02:42:20;;;;;;;17.00;5.63;;;4.20;49.90;;;;;;5117499;27;38278;-82
2021/03/22 02:44:47;;;;;;;15.10;5.47;;;4.30;50.00;;;;;;5134341;27;37851;-82
2021/03/22 02:47:24;;;;;;;14.07;5.47;;;4.30;49.80;;;;;;5134468;27;40715;-82
2021/03/22 02:49:57;;;;;;;11.43;5.57;;;4.30;49.60;;;;;;5134659;27;39170;-82
2021/03/22 02:52:41;;;;;;;10.83;5.03;;;4.30;49.60;;;;;;5120421;27;37925;-82
2021/03/22 02:55:24;;;;;;;16.37;5.50;;;4.20;49.50;;;;;;5113949;28;37744;-83
2021/03/22 02:57:54;;;;;;;10.27;4.80;;;4.20;49.50;;;;;;5131985;27;40380;-84
2021/03/22 03:00:26;;;;;;;17.03;5.77;;;4.30;49.60;;;;;;5132893;27;38833;-83
2021/03/22 03:02:56;;;;;;;16.30;5.60;;;4.30;49.60;;;;;;5124191;27;37865;-82
2021/03/22 03:05:28;;;;;;;16.73;5.50;;;4.30;49.60;;;;;;5112988;28;37360;-83
2021/03/22 03:07:58;;;;;;;15.00;5.53;;;4.30;49.60;;;;;;5092527;28;39910;-83
2021/03/22 03:10:25;;;;;;;20.20;5.67;;;4.40;49.50;;;;;;5096831;27;38850;-82
2021/03/22 03:12:52;;;;;;;20.13;5.53;;;4.40;49.20;;;;;;5112551;27;36979;-82
2021/03/22 03:15:22;;;;;;;15.27;5.10;;;4.40;49.20;;;;;;5096919;27;37523;-83
2021/03/22 03:17:51;;;;;;;14.57;4.50;;;4.30;49.10;;;;;;5134133;27;39747;-82
2021/03/22 03:20:22;;;;;;;13.97;4.97;;;4.40;49.10;;;;;;5132321;27;39517;-83
2021/03/22 03:22:50;;;;;;;13.03;4.93;;;4.40;49.10;;;;;;5114755;27;36814;-83
2021/03/22 03:25:20;;;;;;;9.30;4.37;;;4.30;49.10;;;;;;5135411;27;37527;-83
2021/03/22 03:27:47;;;;;;;16.90;5.40;;;4.30;49.00;;;;;;5132309;27;40646;-82
2021/03/22 03:30:18;;;;;;;10.97;4.30;;;4.40;49.20;;;;;;5133868;27;39353;-82
2021/03/22 03:32:47;;;;;;;13.77;4.70;;;4.30;49.20;;;;;;5114075;27;20628;-83
2021/03/22 03:35:16;;;;;;;11.07;4.23;;;4.30;49.20;;;;;;5096929;27;35897;-84
2021/03/22 03:37:43;;;;;;;14.67;4.47;;;4.30;49.30;;;;;;5135610;27;39957;-82
2021/03/22 03:40:14;;;;;;;14.53;4.40;;;4.30;49.30;;;;;;5131617;27;39131;-83
2021/03/22 03:42:41;;;;;;;12.53;4.67;;;4.30;49.30;;;;;;5092608;27;38845;-83
2021/03/22 03:45:12;;;;;;;13.83;5.17;;;4.30;49.30;;;;;;5151677;27;36931;-83
2021/03/22 03:47:39;;;;;;;13.37;4.70;;;4.30;49.20;;;;;;5131350;27;39728;-82
2021/03/22 03:50:09;;;;;;;15.40;5.03;;;4.30;49.30;;;;;;5127999;27;39126;-83
2021/03/22 03:52:36;;;;;;;22.17;5.70;;;4.30;49.20;;;;;;5128671;27;38460;-82
2021/03/22 03:55:06;;;;;;;14.90;5.17;;;4.30;49.10;;;;;;5126680;27;36913;-83
2021/03/22 03:57:36;;;;;;;14.77;4.07;;;4.30;49.20;;;;;;5127078;27;39891;-83
2021/03/22 04:00:07;;;;;;;14.87;5.50;;;4.30;49.20;;;;;;5129266;27;39954;-82
2021/03/22 04:02:41;;;;;;;21.97;5.10;;;4.30;49.10;;;;;;5126034;27;38338;-82
2021/03/22 04:05:11;;;;;;;21.40;4.77;;;4.30;49.00;;;;;;5114537;27;37309;-82
2021/03/22 04:07:39;;;;;;;15.50;4.13;;;4.30;49.00;;;;;;5108904;27;38903;-83
2021/03/22 04:10:06;;;;;;;20.10;5.07;;;4.30;49.00;;;;;;5135319;27;38975;-82
2021/03/22 04:12:34;;;;;;;13.17;4.80;;;4.30;49.10;;;;;;5124951;27;38955;-82
2021/03/22 04:15:02;;;;;;;14.40;3.90;;;4.30;48.70;;;;;;5126292;27;38132;-83
2021/03/22 04:17:31;;;;;;;14.13;4.33;;;4.30;48.40;;;;;;5098054;28;39240;-82
2021/03/22 04:19:58;;;;;;;9.63;3.37;;;4.30;48.20;;;;;;5131011;27;39337;-82
2021/03/22 04:22:25;;;;;;;7.97;3.80;;;4.30;48.00;;;;;;5132599;27;37679;-82
2021/03/22 04:24:54;;;;;;;8.40;2.70;;;4.30;47.70;;;;;;5135222;27;37278;-83
2021/03/22 04:27:24;;;;;;;9.17;3.43;;;4.40;47.60;;;;;;5124993;27;39663;-83
2021/03/22 04:29:51;;;;;;;10.50;4.10;;;4.40;47.30;;;;;;5135476;27;39592;-83
2021/03/22 04:32:19;;;;;;;13.20;3.70;;;4.40;47.20;;;;;;5132569;27;38930;-82
2021/03/22 04:34:46;;;;;;;10.50;3.20;;;4.30;47.10;;;;;;5134840;27;36675;-84
2021/03/22 04:37:15;;;;;;;11.00;3.23;;;4.30;47.20;;;;;;5122334;27;40739;-82
2021/03/22 04:39:42;;;;;;;19.87;4.80;;;4.20;47.00;;;;;;5119326;28;38946;-83
2021/03/22 04:42:10;;;;;;;18.73;3.90;;;4.30;47.10;;;;;;5128964;27;36825;-83
2021/03/22 04:44:37;;;;;;;8.97;4.13;;;4.20;46.80;;;;;;5120103;27;37739;-84
2021/03/22 04:47:05;;;;;;;16.43;4.60;;;4.20;46.90;;;;;;5112101;27;39191;-84
2021/03/22 04:49:33;;;;;;;11.67;4.50;;;4.20;47.30;;;;;;5133877;27;39141;-83
2021/03/22 04:52:03;;;;;;;10.77;3.57;;;4.30;47.40;;;;;;5138742;27;37768;-83
2021/03/22 04:54:30;;;;;;;12.13;3.77;;;4.30;47.60;;;;;;5141931;27;37962;-83
2021/03/22 04:57:10;;;;;;;13.83;4.17;;;4.30;47.80;;;;;;5132913;27;40065;-83
2021/03/22 04:59:39;;;;;;;19.07;4.33;;;4.30;47.90;;;;;;5138806;27;39315;-83
2021/03/22 05:02:06;;;;;;;19.00;3.83;;;4.30;47.80;;;;;;5140681;27;39077;-84
2021/03/22 05:04:37;;;;;;;15.27;4.17;;;4.30;47.70;;;;;;5119185;28;37515;-83
2021/03/22 05:07:05;;;;;;;14.03;3.67;;;4.30;47.80;;;;;;5125803;27;40738;-83
2021/03/22 05:09:32;;;;;;;13.70;4.60;;;4.30;47.80;;;;;;5121879;27;38915;-83
2021/03/22 05:11:59;;;;;;;9.63;3.87;;;4.20;47.90;;;;;;5113258;27;38428;-83
2021/03/22 05:14:26;;;;;;;13.03;3.83;;;4.20;47.90;;;;;;5115884;28;37112;-83
2021/03/22 05:16:53;;;;;;;14.13;3.70;;;4.20;47.90;;;;;;5123579;27;39907;-82
2021/03/22 05:19:20;;;;;;;9.97;3.60;;;4.20;48.00;;;;;;5111906;28;38403;-83
2021/03/22 05:21:48;;;;;;;13.33;4.80;;;4.20;47.80;;;;;;5143515;27;38271;-84
2021/03/22 05:24:15;;;;;;;17.43;5.50;;;4.20;47.80;;;;;;5121393;28;37500;-83
2021/03/22 05:26:43;;;;;;;11.67;3.53;;;4.20;47.80;;;;;;5106010;27;39925;-83
2021/03/22 05:29:10;;;;;;;12.43;4.10;;;4.20;47.70;;;;;;5096723;28;39247;-83
2021/03/22 05:31:37;;;;;;;14.17;4.33;;;4.20;47.50;;;;;;5128916;27;37084;-83
2021/03/22 05:34:04;;;;;;;17.23;3.13;;;4.30;47.40;;;;;;5122422;27;37967;-83
2021/03/22 05:36:31;;;;;;;13.57;4.07;;;4.30;48.10;;;;;;5131794;27;40064;-83
2021/03/22 05:38:59;;;;;;;11.97;3.83;;;4.30;47.10;;;;;;5134600;27;39031;-83
2021/03/22 05:41:27;;;;;;;15.90;4.23;;;4.40;46.90;;;;;;5133166;27;38157;-83
2021/03/22 05:44:05;;;;;;;11.10;2.80;;;4.40;46.90;;;;;;5115903;28;36898;-83
2021/03/22 05:46:48;;;;;;;11.97;3.20;;;4.40;46.50;;;;;;5099146;28;38481;-83
2021/03/22 05:49:39;;;;;;;14.47;3.40;;;4.40;46.10;;;;;;5128343;27;39997;-83
2021/03/22 05:52:22;;;;;;;14.60;3.27;;;4.40;46.00;;;;;;5136538;27;39437;-83
2021/03/22 05:55:06;;;;;;;8.77;2.47;;;4.50;45.80;;;;;;5117804;27;37096;-83
2021/03/22 05:57:49;;;;;;;9.97;2.30;;;4.50;45.80;;;;;;5132286;27;39896;-84
2021/03/22 06:00:29;;;;;;;13.97;3.40;;;4.50;45.50;;;;;;5099868;28;39178;-83
2021/03/22 06:03:01;;;;;;;10.07;3.03;;;4.50;45.40;;;;;;5098704;27;38692;-83
2021/03/22 06:05:44;;;;;;;11.23;3.33;;;4.60;45.20;;;;;;5117309;27;37990;-84
2021/03/22 06:08:25;;;;;;;12.50;3.10;;;4.60;45.30;;;;;;5133702;27;39646;-84
2021/03/22 06:10:54;;;;;;;13.67;3.90;;;4.70;45.00;;;;;;5128836;27;39117;-83
2021/03/22 06:13:32;;;;;;;18.40;4.07;;;4.70;44.70;;;;;;5115547;28;38168;-84
2021/03/22 06:16:04;;;;;;;19.10;3.43;;;4.80;44.60;;;;;;5098621;28;36175;-82
2021/03/22 06:18:36;;;;;;;18.60;3.53;;;4.80;44.60;;;;;;5123172;27;40833;-82
2021/03/22 06:21:08;;;;;;;9.40;3.30;;;4.80;44.50;;;;;;5121882;27;39435;-83
2021/03/22 06:23:38;;;;;;;9.53;2.73;;;4.90;44.20;;;;;;5107011;27;37638;-83
2021/03/22 06:26:28;;;;;;;9.43;2.87;;;4.90;44.00;;;;;;5127263;27;37939;-82
2021/03/22 06:28:58;;;;;;;10.10;4.30;;;4.90;43.80;;;;;;5093861;28;38367;-83
2021/03/22 06:31:30;;;;;;;19.27;3.37;;;5.10;43.60;;;;;;5123933;27;39790;-83
2021/03/22 06:34:03;;;;;;;9.20;2.40;;;5.10;43.40;;;;;;5122742;27;38785;-83
2021/03/22 06:36:30;;;;;;;9.60;2.60;;;5.20;43.20;;;;;;5103394;28;35984;-83
2021/03/22 06:38:59;;;;;;;10.23;2.40;;;5.20;42.90;;;;;;5098252;28;39124;-83
2021/03/22 06:41:35;;;;;;;11.97;2.37;;;5.30;42.30;;;;;;5097113;28;38605;-83
2021/03/22 06:44:05;;;;;;;7.70;2.10;;;5.20;41.60;;;;;;5116024;28;37731;-83
2021/03/22 06:46:34;;;;;;;8.23;2.63;;;5.30;41.50;;;;;;5116344;28;37312;-83
2021/03/22 06:49:04;;;;;;;9.33;2.07;;;5.30;41.50;;;;;;5098127;28;38423;-83
2021/03/22 06:51:32;;;;;;;6.60;2.03;;;5.30;41.50;;;;;;5116238;28;40016;-82
2021/03/22 06:54:01;;;;;;;5.33;1.93;;;5.40;41.10;;;;;;5104683;27;36816;-83
2021/03/22 06:56:33;;;;;;;6.73;2.33;;;5.50;41.10;;;;;;5126573;27;37205;-83
2021/03/22 06:59:12;;;;;;;17.50;2.97;;;5.50;41.10;;;;;;5116640;27;39548;-83
2021/03/22 07:01:40;;;;;;;12.60;2.50;;;5.50;40.80;;;;;;5107090;27;38610;-82
2021/03/22 07:04:28;;;;;;;7.50;1.80;;;5.50;40.70;;;;;;5126718;27;37809;-82
2021/03/22 07:07:11;;;;;;;8.83;2.10;;;5.40;40.70;;;;;;5113474;28;37377;-82
2021/03/22 07:09:41;;;;;;;8.90;1.80;;;5.40;40.90;;;;;;5116727;28;39389;-83
2021/03/22 07:12:22;;;;;;;13.57;3.00;;;5.50;41.00;;;;;;5116454;28;38652;-82
2021/03/22 07:14:50;;;;;;;8.53;2.10;;;5.50;40.60;;;;;;5094858;28;38021;-82
2021/03/22 07:17:21;;;;;;;12.00;2.07;;;5.60;41.20;;;;;;5116133;28;37983;-83
2021/03/22 07:20:05;;;;;;;12.87;2.23;;;5.50;40.40;;;;;;5097542;28;39391;-82
2021/03/22 07:22:34;;;;;;;8.50;1.90;;;5.60;40.50;;;;;;5097425;28;38114;-82
2021/03/22 07:25:07;;;;;;;18.40;2.23;;;5.60;40.60;;;;;;5116237;28;38481;-82
2021/03/22 07:27:42;;;;;;;10.03;2.10;;;5.70;40.80;;;;;;5114200;28;37571;-83
2021/03/22 07:30:27;;;;;;;9.77;2.20;;;5.70;40.40;;;;;;5114849;28;39693;-82
2021/03/22 07:33:25;;;;;;;6.87;2.57;;;5.70;40.40;;;;;;5111266;27;39019;-82
2021/03/22 07:36:22;;;;;;;4.80;1.80;;;5.80;40.30;;;;;;5100638;27;37682;-82
2021/03/22 07:39:25;;;;;;;10.43;2.60;;;5.80;40.50;;;;;;5086549;28;37706;-81
2021/03/22 07:42:12;;;;;;;14.67;2.80;;;5.90;40.50;;;;;;5093647;28;40863;-81
2021/03/22 07:45:01;;;;;;;12.33;2.97;;;5.90;40.40;;;;;;5092395;28;37558;-81
2021/03/22 07:47:48;;;;;;;8.57;3.07;;;6.00;40.60;;;;;;5109004;27;38766;-81
2021/03/22 07:50:25;;;;;;;4.90;1.57;;;6.10;40.60;;;;;;5125980;27;36822;-82
2021/03/22 07:52:56;;;;;;;8.33;2.93;;;6.20;40.40;;;;;;5108215;27;39915;-87
2021/03/22 07:55:37;;;;;;;15.70;2.97;;;6.20;40.40;;;;;;5118856;27;37802;-85
2021/03/22 07:58:13;;;;;;;8.77;2.37;;;6.30;40.70;;;;;;5089122;28;37713;-86
2021/03/22 08:00:52;;;;;;;10.43;2.90;;;6.40;40.50;;;;;;5109099;27;37419;-85
2021/03/22 08:03:25;;;;;;;9.83;2.77;;;6.30;40.30;;;;;;5122945;27;39051;-85
2021/03/22 08:06:09;;;;;;;11.73;2.80;;;6.40;40.20;;;;;;5125335;27;38506;-85
2021/03/22 08:08:46;;;;;;;14.50;3.07;;;6.50;39.90;;;;;;5088662;28;37000;-84
2021/03/22 08:11:18;;;;;;;12.53;3.33;;;6.50;39.50;;;;;;5105115;27;36801;-84
2021/03/22 08:13:53;;;;;;;7.67;2.73;;;6.50;39.90;;;;;;5113701;27;39599;-83
2021/03/22 08:16:47;;;;;;;10.33;2.80;;;6.50;39.60;;;;;;5112066;28;41386;-87
2021/03/22 08:19:24;;;;;;;12.13;2.80;;;6.60;39.80;;;;;;5114935;28;38711;-85
2021/03/22 08:22:00;;;;;;;14.83;4.00;;;6.80;39.80;;;;;;5108973;28;37187;-83
2021/03/22 08:24:36;;;;;;;18.63;4.50;;;7.00;39.50;;;;;;5110714;28;39851;-84
2021/03/22 08:27:11;;;;;;;12.80;2.43;;;7.20;39.10;;;;;;5116962;28;39194;-85
2021/03/22 08:29:45;;;;;;;14.40;2.97;;;7.30;38.90;;;;;;5123559;28;38546;-84
2021/03/22 08:32:27;;;;;;;12.03;3.20;;;7.50;38.70;;;;;;5121083;28;38399;-85
2021/03/22 08:35:05;;;;;;;9.10;2.53;;;7.50;38.40;;;;;;5110966;27;40541;-85
2021/03/22 08:37:39;;;;;;;8.80;2.37;;;7.40;38.10;;;;;;5107189;27;39930;-83
2021/03/22 08:40:12;;;;;;;15.90;2.63;;;7.50;38.00;;;;;;5107969;27;38012;-84
2021/03/22 08:42:44;;;;;;;8.50;2.13;;;7.40;38.10;;;;;;5104045;27;38211;-82
2021/03/22 08:45:20;;;;;;;8.10;2.10;;;7.50;37.90;;;;;;5106425;27;40180;-83
2021/03/22 08:47:52;;;;;;;13.77;3.10;;;7.40;38.00;;;;;;5103639;27;39893;-84
2021/03/22 08:50:21;;;;;;;8.93;2.40;;;7.60;38.30;;;;;;5122037;27;35677;-83
2021/03/22 08:52:55;;;;;;;8.47;2.30;;;7.70;37.90;;;;;;5109355;28;37389;-83
2021/03/22 08:55:28;;;;;;;24.20;3.70;;;7.90;37.80;;;;;;5105288;27;39540;-83
2021/03/22 08:58:01;;;;;;;7.73;2.40;;;8.00;37.20;;;;;;5105079;27;39859;-83
2021/03/22 09:00:37;;;;;;;16.03;2.50;;;8.30;37.30;;;;;;5087769;28;38447;-82
2021/03/22 09:03:21;;;;;;;13.90;3.50;;;8.50;37.00;;;;;;5106207;27;37342;-83
2021/03/22 09:06:12;;;;;;;10.40;2.70;;;8.60;36.30;;;;;;5089379;28;38695;-84
2021/03/22 09:08:43;;;;;;;9.30;2.93;;;8.80;36.50;;;;;;5107926;28;39920;-84
2021/03/22 09:11:27;;;;;;;10.67;3.17;;;8.90;36.50;;;;;;5088881;28;37704;-85
2021/03/22 09:13:57;;;;;;;12.97;3.03;;;9.10;35.80;;;;;;5108758;28;39403;-84
2021/03/22 09:16:41;;;;;;;10.90;2.00;;;9.20;35.80;;;;;;5109516;27;39807;-84
2021/03/22 09:19:41;;;;;;;7.57;1.97;;;9.10;34.80;;;;;;5086984;28;36991;-85
2021/03/22 09:22:47;;;;;;;8.10;2.50;;;9.10;34.40;;;;;;5109687;28;37976;-85
2021/03/22 09:26:00;;;;;;;11.03;2.17;;;9.00;34.70;;;;;;5098716;28;36520;-84
2021/03/22 09:29:00;;;;;;;47.67;5.20;;;9.00;34.80;;;;;;5111702;28;39259;-85
2021/03/22 09:31:41;;;;;;;15.10;3.43;;;8.90;34.20;;;;;;5104871;28;38287;-84
2021/03/22 09:34:37;;;;;;;9.07;2.23;;;9.00;34.90;;;;;;5105010;27;37612;-85
2021/03/22 09:37:41;;;;;;;11.07;3.30;;;9.10;34.80;;;;;;5089110;28;38083;-85
2021/03/22 09:40:32;;;;;;;7.73;1.80;;;9.00;34.30;;;;;;5077578;28;40070;-85
2021/03/22 09:43:35;;;;;;;7.50;2.63;;;9.00;34.60;;;;;;5076391;28;38797;-85
2021/03/22 09:46:28;;;;;;;6.77;1.77;;;9.20;34.40;;;;;;5062137;28;38892;-84
2021/03/22 09:49:31;;;;;;;7.67;2.17;;;9.40;33.80;;;;;;5089685;28;38142;-84
2021/03/22 09:52:15;;;;;;;5.70;2.30;;;9.20;34.10;;;;;;5090115;28;39792;-85
2021/03/22 09:54:45;;;;;;;5.20;1.93;;;9.10;34.40;;;;;;5076186;28;40861;-85
2021/03/22 09:57:41;;;;;;;5.80;2.13;;;8.80;34.60;;;;;;5084476;28;38359;-84
2021/03/22 10:00:28;;;;;;;4.97;1.90;;;8.50;35.00;;;;;;5088251;28;36140;-82
2021/03/22 10:02:58;;;;;;;7.83;2.13;;;8.20;36.30;;;;;;5093093;28;38835;-85
2021/03/22 10:05:28;;;;;;;7.70;1.50;;;8.10;36.80;;;;;;5075371;28;39203;-83
2021/03/22 10:08:15;;;;;;;4.90;1.80;;;8.10;36.40;;;;;;5086619;28;37401;-84
2021/03/22 10:10:53;;;;;;;7.50;2.57;;;8.20;37.10;;;;;;5087653;28;36152;-85
2021/03/22 10:13:25;;;;;;;7.53;2.13;;;8.40;36.70;;;;;;5108244;27;38570;-86
2021/03/22 10:15:57;;;;;;;10.87;2.33;;;8.70;36.40;;;;;;5076853;28;37619;-85
2021/03/22 10:18:36;;;;;;;5.50;2.27;;;8.70;36.00;;;;;;5068045;28;37563;-85
2021/03/22 10:21:08;;;;;;;9.60;2.40;;;8.70;36.00;;;;;;5074916;28;35918;-83
2021/03/22 10:23:40;;;;;;;8.23;2.10;;;8.90;35.80;;;;;;5075113;28;39312;-84
2021/03/22 10:26:11;;;;;;;6.03;2.30;;;9.00;35.60;;;;;;5086927;28;39108;-83
2021/03/22 10:28:41;;;;;;;15.43;2.20;;;9.00;35.40;;;;;;5087400;28;38492;-84
2021/03/22 10:31:19;;;;;;;7.47;2.00;;;9.00;35.90;;;;;;5108527;28;36273;-84
2021/03/22 10:33:56;;;;;;;13.37;2.80;;;9.00;35.20;;;;;;5090734;27;38407;-85
2021/03/22 10:36:33;;;;;;;11.20;3.00;;;9.00;35.50;;;;;;5109979;27;38830;-84
2021/03/22 10:39:01;;;;;;;23.47;4.07;;;9.10;34.80;;;;;;5109117;27;39156;-83
2021/03/22 10:41:34;;;;;;;5.60;1.77;;;8.90;35.00;;;;;;5091955;27;35581;-82
2021/03/22 10:44:04;;;;;;;10.27;2.40;;;8.50;35.40;;;;;;5106862;27;38578;-82
2021/03/22 10:46:34;;;;;;;11.57;2.20;;;8.30;36.00;;;;;;5127381;27;36899;-82
2021/03/22 10:49:07;;;;;;;4.57;1.97;;;8.10;36.40;;;;;;5111944;28;37158;-81
2021/03/22 10:51:42;;;;;;;9.67;1.80;;;8.00;36.50;;;;;;5108928;28;37233;-83
2021/03/22 10:54:13;;;;;;;4.20;1.73;;;7.90;37.40;;;;;;5109013;28;40330;-83
2021/03/22 10:56:49;;;;;;;7.43;2.00;;;8.00;36.90;;;;;;5108535;27;39232;-83
2021/03/22 10:59:21;;;;;;;5.33;2.27;;;8.10;36.90;;;;;;5126401;27;36664;-83
2021/03/22 11:01:50;;;;;;;5.93;1.70;;;8.20;36.70;;;;;;5111991;28;37120;-83
2021/03/22 11:04:22;;;;;;;5.47;2.30;;;8.50;36.90;;;;;;5106997;28;40376;-83
2021/03/22 11:06:58;;;;;;;12.07;2.40;;;9.20;36.50;;;;;;5108241;27;39188;-83
2021/03/22 11:09:30;;;;;;;6.80;2.07;;;10.00;34.00;;;;;;5107233;27;38132;-84
2021/03/22 11:12:01;;;;;;;7.23;2.33;;;10.70;32.20;;;;;;5092039;28;37517;-84
2021/03/22 11:14:31;;;;;;;4.63;2.00;;;10.90;31.90;;;;;;5092744;28;38555;-84
2021/03/22 11:17:03;;;;;;;6.13;1.83;;;11.00;31.60;;;;;;5113609;28;38730;-84
2021/03/22 11:19:39;;;;;;;9.97;1.90;;;11.00;31.10;;;;;;5118681;28;37970;-84
2021/03/22 11:22:23;;;;;;;6.30;1.80;;;10.80;30.60;;;;;;5118913;28;37873;-84
2021/03/22 11:24:54;;;;;;;5.23;1.43;;;10.60;30.70;;;;;;5119198;28;40916;-86
2021/03/22 11:27:24;;;;;;;8.17;1.67;;;10.20;30.90;;;;;;5130553;27;37678;-85
2021/03/22 11:30:00;;;;;;;6.80;1.63;;;10.10;31.20;;;;;;5105739;28;38242;-83
2021/03/22 11:32:34;;;;;;;4.90;2.20;;;9.80;32.40;;;;;;5078149;28;36545;-84
2021/03/22 11:35:13;;;;;;;5.37;1.70;;;9.40;33.00;;;;;;5098991;28;38354;-84
2021/03/22 11:37:51;;;;;;;5.37;1.90;;;9.10;33.60;;;;;;5073275;28;39256;-85
2021/03/22 11:40:22;;;;;;;5.73;2.10;;;8.90;34.20;;;;;;5073553;28;38304;-86
2021/03/22 11:42:55;;;;;;;8.37;2.20;;;8.90;34.40;;;;;;5116632;27;38613;-83
2021/03/22 11:45:35;;;;;;;4.90;1.97;;;8.80;34.60;;;;;;5074813;28;38630;-82
2021/03/22 11:48:31;;;;;;;7.17;2.17;;;8.70;34.70;;;;;;5095353;28;39329;-80
2021/03/22 11:51:08;;;;;;;10.00;2.20;;;8.70;34.40;;;;;;5102819;28;40589;-72
2021/03/22 11:54:05;;;;;;;3.10;1.77;;;8.60;34.60;;;;;;5107554;28;37407;-73
2021/03/22 11:57:04;;;;;;;10.17;2.20;;;8.50;34.80;;;;;;5113832;28;40031;-73
2021/03/22 12:00:10;;;;;;;5.70;1.70;;;8.40;35.20;;;;;;5115873;28;40126;-73
2021/03/22 12:02:50;;;;;;;5.97;1.80;;;8.30;35.30;;;;;;5054930;28;37988;-73
2021/03/22 12:05:29;;;;;;;4.70;2.30;;;8.30;35.30;;;;;;5080019;28;35729;-73
2021/03/22 12:07:59;;;;;;;13.50;2.90;;;8.20;35.80;;;;;;5100533;28;39389;-73
2021/03/22 12:10:29;;;;;;;9.43;2.60;;;8.30;36.00;;;;;;5104212;28;38825;-74
2021/03/22 12:13:01;;;;;;;7.53;2.60;;;8.60;35.90;;;;;;5102103;28;39519;-73
2021/03/22 12:15:30;;;;;;;5.93;2.33;;;9.10;35.40;;;;;;5079342;28;36613;-73
2021/03/22 12:17:59;;;;;;;8.63;2.20;;;9.60;34.60;;;;;;5104846;28;39668;-75
2021/03/22 12:20:30;;;;;;;18.23;2.67;;;9.90;33.60;;;;;;5078763;28;37658;-74
2021/03/22 12:22:58;;;;;;;8.07;2.53;;;10.30;32.20;;;;;;5095629;28;39079;-74
2021/03/22 12:25:27;;;;;;;7.80;2.70;;;10.50;31.60;;;;;;5093858;28;37243;-75
2021/03/22 12:27:55;;;;;;;14.07;3.70;;;10.70;31.30;;;;;;5092321;28;38291;-74
2021/03/22 12:30:24;;;;;;;8.80;2.50;;;10.60;31.00;;;;;;5101696;28;39677;-73
2021/03/22 12:32:57;;;;;;;6.20;2.30;;;10.50;31.20;;;;;;5123048;27;38108;-76
2021/03/22 12:35:31;;;;;;;9.93;2.70;;;10.50;31.20;;;;;;5104700;27;37246;-75
2021/03/22 12:38:00;;;;;;;5.83;2.17;;;10.60;31.40;;;;;;5113818;28;39240;-73
2021/03/22 12:40:28;;;;;;;6.07;2.30;;;10.50;31.60;;;;;;5100298;27;37979;-75
2021/03/22 12:42:59;;;;;;;12.50;2.93;;;10.60;31.20;;;;;;5107146;27;38333;-72
2021/03/22 12:45:30;;;;;;;4.23;2.00;;;10.50;30.80;;;;;;5111788;28;37402;-73
2021/03/22 12:47:57;;;;;;;5.03;2.00;;;10.50;30.90;;;;;;5091979;28;39614;-74
2021/03/22 12:50:31;;;;;;;8.63;2.40;;;10.50;30.60;;;;;;5117888;27;39955;-73
2021/03/22 12:53:00;;;;;;;6.20;2.10;;;10.30;31.20;;;;;;5128957;27;37989;-73
2021/03/22 12:55:29;;;;;;;10.60;3.10;;;10.20;31.30;;;;;;5134391;27;38098;-74
2021/03/22 12:57:58;;;;;;;6.63;2.30;;;10.00;31.10;;;;;;5131410;27;39382;-73
2021/03/22 13:00:28;;;;;;;11.83;2.70;;;9.70;32.50;;;;;;5112153;27;39045;-73
2021/03/22 13:02:56;;;;;;;9.57;2.43;;;9.60;33.10;;;;;;5118064;27;38658;-72
2021/03/22 13:05:24;;;;;;;8.00;3.87;;;9.50;32.90;;;;;;5123719;27;37973;-73
2021/03/22 13:07:55;;;;;;;8.60;3.50;;;9.30;33.10;;;;;;5133243;27;38070;-72
2021/03/22 13:10:26;;;;;;;4.23;1.97;;;9.20;33.00;;;;;;5111702;27;37872;-72
2021/03/22 13:12:53;;;;;;;5.43;2.50;;;9.10;33.20;;;;;;5125282;27;37777;-73
2021/03/22 13:15:26;;;;;;;8.00;2.40;;;8.90;33.20;;;;;;5111391;28;36391;-73
2021/03/22 13:17:54;;;;;;;4.50;2.17;;;8.90;33.70;;;;;;5124607;27;39547;-73
2021/03/22 13:20:23;;;;;;;3.27;1.67;;;8.90;34.10;;;;;;5119687;27;38126;-74
2021/03/22 13:22:51;;;;;;;3.93;1.83;;;8.80;34.20;;;;;;5145518;27;37270;-72
2021/03/22 13:25:19;;;;;;;4.97;2.00;;;8.70;34.50;;;;;;5129469;27;37448;-73
2021/03/22 13:27:49;;;;;;;6.37;1.50;;;8.60;34.40;;;;;;5120539;27;40593;-72